Estación Meteorológica Peña el Pijo (Robertgarden) [ 11/12/18 21:47:37 CET ]

Fecha Hora Presion(HPa) Temp (°C) Humedad % Rocio (°C) Viento ( m/s) Direccion Lluvia 1Hora(mm) Lluvia 24H(mm) LLuvia Total(mm)
2018-Mar-11 01:01:26 996.900 6.5 72 1.9       1.03 130.53
2018-Mar-11 02:03:12 996.100 6.7 71 1.8       1.03 130.53
2018-Mar-11 03:01:43 996.200 7.0 70 1.9       1.03 130.53
2018-Mar-11 04:01:35 995.300 6.4 72 1.7 3.0 WNW   1.03 130.53
2018-Mar-11 05:01:38 995.600 5.9 67 0.2 1.3 NNW   1.03 130.53
2018-Mar-11 06:01:46 995.600 5.4 68 -0.0 1.5 NNW   1.03 130.53
2018-Mar-11 07:01:49 995.600 4.9 69 -0.3       1.03 130.53
2018-Mar-11 08:01:43 996.100 5.9 68 0.5       1.03 130.53
2018-Mar-11 09:01:50 996.800 6.7 65 0.6       1.03 130.53
2018-Mar-11 10:01:51 997.400 7.9 59 0.4 3.7 NW   1.03 130.53
2018-Mar-11 11:02:05 998.100 10.1 51 0.4 2.8 NNW   1.03 130.53
2018-Mar-11 12:01:34 998.000 10.9 54 1.9       1.03 130.53
2018-Mar-11 13:01:39 998.200 9.5 59 1.9 4.3 WNW   1.03 130.53
2018-Mar-11 14:01:52 997.900 6.4 74 2.1 4.3 NW   1.03 130.53
2018-Mar-11 15:01:40 997.200 8.6 69 3.2       0.51 130.53
2018-Mar-11 16:02:03 996.600 8.5 64 2.1 3.3 WNW   0.51 130.53
2018-Mar-11 17:01:58 998.100 4.6 75 0.5     1.03 1.55 131.57
2018-Mar-11 18:01:55 998.400 3.5 81 0.6     2.07 4.14 134.16
2018-Mar-11 19:01:44 998.500 3.8 82 1.0     0.51 4.14 134.68
2018-Mar-11 20:01:52 999.100 3.1 83 0.5     2.07 6.21 136.75
2018-Mar-11 21:01:42 999.700 3.9 83 1.3       6.21 136.75
2018-Mar-11 22:01:58 999.700 3.1 84 0.6 1.6 WNW 0.51 6.73 137.27
2018-Mar-11 23:01:53 1000.000 3.8 83 1.2 2.4 NW 1.03 7.77 138.30

Temperatura Máxima:10°    Temperatura Mínima:
Presión Máxima:1000.000 Hpa    Presión Mínima:995.300 Hpa


Volver